createdAt,value
2023-11-24T00:04:39.756Z,100.00
2023-11-24T00:09:32.857Z,100.00
2023-11-24T00:14:26.086Z,100.00
2023-11-24T00:19:18.122Z,100.00
2023-11-24T00:24:10.371Z,100.00
2023-11-24T00:29:02.964Z,100.00
2023-11-24T00:33:55.551Z,100.00
2023-11-24T00:38:47.597Z,100.00
2023-11-24T00:43:40.456Z,100.00
2023-11-24T00:48:33.013Z,100.00
2023-11-24T00:53:30.750Z,100.00
2023-11-24T00:58:22.779Z,100.00
2023-11-24T01:03:18.037Z,100.00
2023-11-24T01:08:10.230Z,100.00
2023-11-24T01:13:04.058Z,100.00
2023-11-24T01:18:00.494Z,97.91
2023-11-24T01:22:53.213Z,95.94
2023-11-24T01:27:47.006Z,93.81
2023-11-24T01:32:40.124Z,90.26
2023-11-24T01:37:32.643Z,88.45
2023-11-24T01:42:24.945Z,85.88
2023-11-24T01:47:17.710Z,84.39
2023-11-24T01:52:10.051Z,84.80
2023-11-24T01:57:03.636Z,83.14
2023-11-24T02:01:58.727Z,80.96
2023-11-24T02:06:52.498Z,88.02
2023-11-24T02:11:46.718Z,100.00
2023-11-24T02:16:39.382Z,100.00
2023-11-24T02:21:31.468Z,100.00
2023-11-24T02:26:26.495Z,100.00
2023-11-24T02:31:18.487Z,100.00
2023-11-24T02:36:22.666Z,100.00
2023-11-24T02:41:18.105Z,100.00
2023-11-24T02:46:17.663Z,100.00
2023-11-24T02:51:10.904Z,100.00
2023-11-24T02:56:05.473Z,100.00
2023-11-24T03:00:58.674Z,100.00
2023-11-24T03:05:55.623Z,100.00
2023-11-24T03:10:50.104Z,100.00
2023-11-24T03:15:43.142Z,100.00
2023-11-24T03:20:37.409Z,100.00
2023-11-24T03:25:30.876Z,100.00
2023-11-24T03:30:25.247Z,98.67
2023-11-24T03:35:18.741Z,98.24
2023-11-24T03:40:11.971Z,96.74
2023-11-24T03:45:04.347Z,96.25
2023-11-24T03:49:56.882Z,95.18
2023-11-24T03:54:49.163Z,94.24
2023-11-24T03:59:41.216Z,93.48
2023-11-24T04:04:35.505Z,91.00
2023-11-24T04:09:27.736Z,87.21
2023-11-24T04:14:20.240Z,86.50
2023-11-24T04:19:12.581Z,83.00
2023-11-24T04:24:04.930Z,80.93
2023-11-24T04:28:58.659Z,78.98
2023-11-24T04:33:53.648Z,78.89
2023-11-24T04:38:46.776Z,79.60
2023-11-24T04:43:40.808Z,78.67
2023-11-24T04:48:33.041Z,78.87
2023-11-24T04:53:25.270Z,79.08
2023-11-24T04:58:17.282Z,76.76
2023-11-24T05:03:09.514Z,76.71
2023-11-24T05:08:01.493Z,77.49
2023-11-24T05:12:54.957Z,77.04
2023-11-24T05:17:47.378Z,76.15
2023-11-24T05:22:41.391Z,77.17
2023-11-24T05:27:33.352Z,77.79
2023-11-24T05:32:26.257Z,78.45
2023-11-24T05:37:19.260Z,77.88
2023-11-24T05:42:12.988Z,76.82
2023-11-24T05:47:06.343Z,78.27
2023-11-24T05:51:59.393Z,77.38
2023-11-24T05:56:51.574Z,77.48
2023-11-24T06:01:51.031Z,77.93
2023-11-24T06:06:43.167Z,77.65
2023-11-24T06:11:38.071Z,76.41
2023-11-24T06:16:29.994Z,75.93
2023-11-24T06:21:22.120Z,75.15
2023-11-24T06:26:14.325Z,75.33
2023-11-24T06:31:11.467Z,74.68
2023-11-24T06:36:05.498Z,75.24
2023-11-24T06:40:59.465Z,74.79
2023-11-24T06:45:53.578Z,74.66
2023-11-24T06:50:46.250Z,76.01
2023-11-24T06:55:38.882Z,76.75
2023-11-24T07:00:31.686Z,76.88
2023-11-24T07:05:25.094Z,75.96
2023-11-24T07:10:20.900Z,75.62
2023-11-24T07:15:13.281Z,75.62
2023-11-24T07:20:12.989Z,77.34
2023-11-24T07:25:05.695Z,77.53
2023-11-24T07:29:58.312Z,76.16
2023-11-24T07:34:53.459Z,76.46
2023-11-24T07:39:46.574Z,75.92
2023-11-24T07:44:39.074Z,76.12
2023-11-24T07:49:32.014Z,75.90
2023-11-24T07:54:27.756Z,77.67
2023-11-24T07:59:22.188Z,84.36
2023-11-24T08:04:15.444Z,88.03
2023-11-24T08:09:09.941Z,89.19
2023-11-24T08:14:04.883Z,91.96
2023-11-24T08:18:59.391Z,91.73
2023-11-24T08:23:51.794Z,92.60
2023-11-24T08:28:45.478Z,88.45
2023-11-24T08:33:39.892Z,86.53
2023-11-24T08:38:36.390Z,86.03
2023-11-24T08:43:30.793Z,85.59
2023-11-24T08:48:24.796Z,80.97
2023-11-24T08:53:17.236Z,72.12
2023-11-24T09:03:20.310Z,71.84
2023-11-24T09:08:20.473Z,72.28
2023-11-24T09:23:29.882Z,71.90
2023-11-24T09:43:53.517Z,68.14
2023-11-24T09:53:57.320Z,68.31
2023-11-24T10:04:04.357Z,66.33
2023-11-24T10:09:07.297Z,65.32
2023-11-24T10:14:00.593Z,67.10
2023-11-24T10:24:08.114Z,66.33
2023-11-24T10:34:15.089Z,67.49
2023-11-24T10:39:15.037Z,69.98
2023-11-24T10:49:43.836Z,75.83
2023-11-24T10:54:41.784Z,85.20
2023-11-24T10:59:40.253Z,94.13
2023-11-24T11:04:42.554Z,93.49
2023-11-24T11:09:50.335Z,97.24
2023-11-24T11:20:05.148Z,88.92
2023-11-24T11:25:35.129Z,81.42
2023-11-24T11:30:30.800Z,79.00
2023-11-24T11:35:30.134Z,76.19
2023-11-24T11:40:25.442Z,75.22
2023-11-24T11:45:31.697Z,71.20
2023-11-24T11:50:27.306Z,68.91
2023-11-24T11:55:25.119Z,67.93
2023-11-24T12:00:18.214Z,66.84
2023-11-24T12:05:16.279Z,68.81
2023-11-24T12:10:12.989Z,70.52
2023-11-24T12:15:09.445Z,75.50
2023-11-24T12:32:20.172Z,71.21
2023-11-24T12:37:13.795Z,70.28
2023-11-24T12:42:08.701Z,70.03
2023-11-24T12:47:13.145Z,69.33
2023-11-24T12:52:06.818Z,71.15
2023-11-24T12:57:02.576Z,68.97
2023-11-24T13:02:00.344Z,69.77
2023-11-24T13:06:54.319Z,68.71
2023-11-24T13:11:48.128Z,69.13
2023-11-24T13:16:42.379Z,68.89
2023-11-24T13:21:35.432Z,67.92
2023-11-24T13:26:29.400Z,67.37
2023-11-24T13:31:23.291Z,66.85
2023-11-24T13:36:18.437Z,65.25
2023-11-24T13:41:13.718Z,65.13
2023-11-24T13:46:07.838Z,65.03
2023-11-24T13:51:04.711Z,63.58
2023-11-24T13:55:58.940Z,63.20
2023-11-24T14:00:57.476Z,63.52
2023-11-24T14:12:08.332Z,63.97
2023-11-24T14:17:03.756Z,65.35
2023-11-24T14:22:00.464Z,64.07
2023-11-24T14:26:55.849Z,64.32
2023-11-24T14:31:51.812Z,63.37
2023-11-24T14:36:46.584Z,62.29
2023-11-24T14:41:40.346Z,61.20
2023-11-24T14:46:40.786Z,61.97
2023-11-24T14:51:37.366Z,62.34
2023-11-24T14:56:32.312Z,62.58
2023-11-24T15:01:29.386Z,63.42
2023-11-24T15:06:26.748Z,64.72
2023-11-24T15:11:22.285Z,64.76
2023-11-24T16:36:02.010Z,73.68
2023-11-24T16:46:34.932Z,79.80
2023-11-24T16:51:35.469Z,93.07
2023-11-24T19:03:52.180Z,84.41
2023-11-24T19:32:43.437Z,81.47
2023-11-24T19:44:21.127Z,81.21
2023-11-24T20:05:57.235Z,82.04
2023-11-24T20:11:14.777Z,84.34
